Knjazevac, Serbia
Current Conditions -  °F | °C
As of 10:30 AM on Monday 26 Jan 2015 (Local Time) from LYNI Reporting Station
Broken Clouds Broken Clouds  
Wind Chill: 30°   Ceiling: 2700
Heat Index: 34°   Visibility: 6mi
Dew Point: 34°   Wind: 5mph
Humidity: 100%   Direction: 310°NW
Pressure: 30.21"   Gusts: NA
Location:  43.57°N, 22.26°E
Report Text: LYNI 260830Z 31004KT 9999 SCT010 BKN027 01/01 Q1023 R11/2///95NOSIG
Loading
Personal Weather Stations






























Interactive Weather Map New forecast layout! Learn more

10-Day Weather Forecast

Advertisements
Track Severe Weather on mobile